Etusivu
METAR-TAF:

METAR-TAF

Lentoasemat :

Grande Prairie, Alberta, Kanada

Leveyspiiri: 55-11N, Pituuspiiri: 118-53W, korkeus merenpinnasta: 666 m

Tämänhetkinen sää

Tämä raportti tehtiin 14 minuuttia sitten, kello 14.00 UTC
Tuuli 2 kn lounaasta
Lämpötila 12°C
Kosteus 62%
Ilmanpaine 1014 hPa
Näkyvyys: 16.1 km
Hajanaisia pilviä 22000 ft:n korkeudessa

METAR: CYQU 271400Z 22002KT 10SM SCT220 12/05 A2995 RMK CI4 FU SLP151 DENSITY ALT 2300FT

Aika: 08:14 (14:14 UTC)

Sääennuste

Tämä raportti tehtiin 1 tunti ja 36 minuuttia sitten, kello 12.38 UTC
Ennuste voimassa 27. päivästä klo 13 UTC - 28. päivään klo 01 UTC
Tuuli 3 kn eri suunnista
Näkyvyys: 10 km
Hajanaisia pilviä 22000 ft:n korkeudessa

TAF: CYQU 271238Z 2713/2801 VRB03KT P6SM SCT220 RMK NXT FCST BY 271900Z

Säähavainnot ja -ennusteet yli 4000 lentoasemalta (METAR- ja TAF-raportit).

Käytössä olevat sääasemat on merkitty karttaan keltaisilla ja punaisilla pisteillä.

Aseta hiiri pisteen päälle nähdäksesi sääaseman nimen.

Klikkaa sitten nähdäksesi säähavainnot ja -ennusteet.

Kartan vaihtaminen: klikkaa mustalla rastilla varustettuja vihreitä pisteitä, niin voit zoomata sisään; viivalla varustettua vihreää pistettä, niin voit zoomata ulos tai vihreitä nuolia, niin pääset viereisille kartoille.


METAR-TAF: